This is the latest recevied weather packets stored in our database for station/object SV6DBG-10. If no packets are shown the sender has not sent any weather packets the latest 1 day(s).
| Time | Temp. | Humidity | Pressure | Rain* | Wind** | Luminosity | Snow |
|---|---|---|---|---|---|---|---|
| 1777898668 | 23.33° C | 17% | 1020.1 hPa | - | - | - | - |
| 1777897768 | 23.33° C | 17% | 1020.3 hPa | - | - | - | - |
| 1777896868 | 23.33° C | 16% | 1020.4 hPa | - | - | - | - |
| 1777895968 | 22.78° C | 16% | 1020.5 hPa | - | - | - | - |
| 1777895068 | 22.78° C | 16% | 1020.6 hPa | - | - | - | - |
| 1777894168 | 22.78° C | 16% | 1020.8 hPa | - | - | - | - |
| 1777893267 | 22.22° C | 15% | 1020.9 hPa | - | - | - | - |
| 1777892367 | 23.33° C | 16% | 1021 hPa | - | - | - | - |
| 1777891467 | 23.89° C | 14% | 1021.1 hPa | - | - | - | - |
| 1777890567 | 24.44° C | 17% | 1021.4 hPa | - | - | - | - |
| 1777889667 | 24.44° C | 14% | 1021.7 hPa | - | - | - | - |
| 1777888767 | 23.89° C | 17% | 1021.8 hPa | - | - | - | - |
| 1777887866 | 23.33° C | 18% | 1021.9 hPa | - | - | - | - |
| 1777886966 | 22.78° C | 22% | 1022.2 hPa | - | - | - | - |
| 1777886066 | 23.33° C | 19% | 1022.3 hPa | - | - | - | - |
| 1777885166 | 23.33° C | 19% | 1022.4 hPa | - | - | - | - |
| 1777884266 | 22.78° C | 20% | 1022.6 hPa | - | - | - | - |
| 1777883366 | 22.22° C | 24% | 1022.7 hPa | - | - | - | - |
| 1777882465 | 22.22° C | 24% | 1022.6 hPa | - | - | - | - |
| 1777881565 | 24.44° C | 22% | 1022.8 hPa | - | - | - | - |
| 1777880665 | 23.33° C | 25% | 1022.8 hPa | - | - | - | - |
| 1777879765 | 21.11° C | 29% | 1023 hPa | - | - | - | - |
| 1777878865 | 23.89° C | 25% | 1022.8 hPa | - | - | - | - |
| 1777877965 | 21.67° C | 29% | 1023 hPa | - | - | - | - |
| 1777877064 | 20.56° C | 32% | 1023.1 hPa | - | - | - | - |
* Rain since midnight (hover to see other rain measurements)
** Current wind speed in m/s (hover to see current wind gust speed)